sensor_id;sensor_type;location;lat;lon;timestamp;P1;durP1;ratioP1;P2;durP2;ratioP2
70467;SDS011;57934;51.532;7.684;2022-11-11T00:02:13;4.87;;;2.50;;
70467;SDS011;57934;51.532;7.684;2022-11-11T00:04:58;5.70;;;2.50;;
70467;SDS011;57934;51.532;7.684;2022-11-11T00:07:42;6.25;;;2.97;;
70467;SDS011;57934;51.532;7.684;2022-11-11T00:16:04;5.65;;;2.70;;
70467;SDS011;57934;51.532;7.684;2022-11-11T00:18:50;8.30;;;2.83;;
70467;SDS011;57934;51.532;7.684;2022-11-11T00:21:53;8.73;;;2.60;;
70467;SDS011;57934;51.532;7.684;2022-11-11T00:24:57;7.43;;;2.90;;
70467;SDS011;57934;51.532;7.684;2022-11-11T00:27:51;6.45;;;2.95;;
70467;SDS011;57934;51.532;7.684;2022-11-11T00:30:36;6.75;;;2.95;;
70467;SDS011;57934;51.532;7.684;2022-11-11T00:33:20;4.45;;;2.67;;
70467;SDS011;57934;51.532;7.684;2022-11-11T00:36:05;8.15;;;3.30;;
70467;SDS011;57934;51.532;7.684;2022-11-11T00:38:50;7.82;;;3.00;;
70467;SDS011;57934;51.532;7.684;2022-11-11T00:41:38;6.57;;;2.85;;
70467;SDS011;57934;51.532;7.684;2022-11-11T00:44:22;4.27;;;2.40;;
70467;SDS011;57934;51.532;7.684;2022-11-11T00:47:07;7.22;;;2.78;;
70467;SDS011;57934;51.532;7.684;2022-11-11T00:50:21;7.03;;;2.80;;
70467;SDS011;57934;51.532;7.684;2022-11-11T00:53:27;9.68;;;2.88;;
70467;SDS011;57934;51.532;7.684;2022-11-11T00:56:14;7.10;;;2.83;;
70467;SDS011;57934;51.532;7.684;2022-11-11T00:58:59;7.05;;;2.95;;
70467;SDS011;57934;51.532;7.684;2022-11-11T01:01:43;7.25;;;3.33;;
70467;SDS011;57934;51.532;7.684;2022-11-11T01:04:28;7.30;;;3.08;;
70467;SDS011;57934;51.532;7.684;2022-11-11T01:07:12;6.50;;;3.17;;
70467;SDS011;57934;51.532;7.684;2022-11-11T01:09:57;4.88;;;2.83;;
70467;SDS011;57934;51.532;7.684;2022-11-11T01:12:43;6.22;;;2.80;;
70467;SDS011;57934;51.532;7.684;2022-11-11T01:15:27;6.53;;;2.80;;
70467;SDS011;57934;51.532;7.684;2022-11-11T01:18:13;8.55;;;3.38;;
70467;SDS011;57934;51.532;7.684;2022-11-11T01:21:00;8.32;;;3.47;;
70467;SDS011;57934;51.532;7.684;2022-11-11T01:23:51;4.45;;;2.67;;
70467;SDS011;57934;51.532;7.684;2022-11-11T01:26:36;6.40;;;2.92;;
70467;SDS011;57934;51.532;7.684;2022-11-11T01:29:20;8.93;;;3.45;;
70467;SDS011;57934;51.532;7.684;2022-11-11T01:32:06;8.85;;;3.20;;
70467;SDS011;57934;51.532;7.684;2022-11-11T01:34:51;4.60;;;2.78;;
70467;SDS011;57934;51.532;7.684;2022-11-11T01:37:35;4.38;;;2.50;;
70467;SDS011;57934;51.532;7.684;2022-11-11T01:40:20;8.80;;;2.80;;
70467;SDS011;57934;51.532;7.684;2022-11-11T01:48:44;5.35;;;2.20;;
70467;SDS011;57934;51.532;7.684;2022-11-11T01:55:01;10.50;;;2.67;;
70467;SDS011;57934;51.532;7.684;2022-11-11T01:58:04;5.03;;;2.65;;
70467;SDS011;57934;51.532;7.684;2022-11-11T02:00:53;7.95;;;2.83;;
70467;SDS011;57934;51.532;7.684;2022-11-11T02:03:39;3.88;;;2.42;;
70467;SDS011;57934;51.532;7.684;2022-11-11T02:06:25;3.78;;;2.22;;
70467;SDS011;57934;51.532;7.684;2022-11-11T02:09:11;6.63;;;2.85;;
70467;SDS011;57934;51.532;7.684;2022-11-11T02:11:56;8.98;;;2.92;;
70467;SDS011;57934;51.532;7.684;2022-11-11T02:15:02;7.03;;;2.85;;
70467;SDS011;57934;51.532;7.684;2022-11-11T02:17:48;7.82;;;3.20;;
70467;SDS011;57934;51.532;7.684;2022-11-11T02:20:34;8.02;;;2.67;;
70467;SDS011;57934;51.532;7.684;2022-11-11T02:23:38;5.18;;;2.58;;
70467;SDS011;57934;51.532;7.684;2022-11-11T02:26:29;4.75;;;2.40;;
70467;SDS011;57934;51.532;7.684;2022-11-11T02:29:17;6.82;;;2.55;;
70467;SDS011;57934;51.532;7.684;2022-11-11T02:32:04;7.35;;;2.72;;
70467;SDS011;57934;51.532;7.684;2022-11-11T02:34:49;7.13;;;2.53;;
70467;SDS011;57934;51.532;7.684;2022-11-11T02:37:33;5.43;;;2.38;;
70467;SDS011;57934;51.532;7.684;2022-11-11T02:43:08;5.22;;;2.17;;
70467;SDS011;57934;51.532;7.684;2022-11-11T02:45:53;10.52;;;2.63;;
70467;SDS011;57934;51.532;7.684;2022-11-11T02:48:37;5.80;;;2.45;;
70467;SDS011;57934;51.532;7.684;2022-11-11T02:51:22;8.35;;;2.55;;
70467;SDS011;57934;51.532;7.684;2022-11-11T02:54:06;5.05;;;2.55;;
70467;SDS011;57934;51.532;7.684;2022-11-11T02:56:51;5.43;;;2.05;;
70467;SDS011;57934;51.532;7.684;2022-11-11T02:59:50;6.22;;;2.83;;
70467;SDS011;57934;51.532;7.684;2022-11-11T03:02:35;3.88;;;2.53;;
70467;SDS011;57934;51.532;7.684;2022-11-11T03:05:20;5.25;;;2.78;;
70467;SDS011;57934;51.532;7.684;2022-11-11T03:08:05;7.10;;;2.65;;
70467;SDS011;57934;51.532;7.684;2022-11-11T03:10:49;3.90;;;2.47;;
70467;SDS011;57934;51.532;7.684;2022-11-11T03:13:34;5.43;;;2.42;;
70467;SDS011;57934;51.532;7.684;2022-11-11T03:16:19;7.40;;;2.47;;
70467;SDS011;57934;51.532;7.684;2022-11-11T03:19:23;7.22;;;2.40;;
70467;SDS011;57934;51.532;7.684;2022-11-11T03:22:07;8.73;;;2.97;;
70467;SDS011;57934;51.532;7.684;2022-11-11T03:24:52;4.47;;;2.75;;
70467;SDS011;57934;51.532;7.684;2022-11-11T03:27:55;6.35;;;2.28;;
70467;SDS011;57934;51.532;7.684;2022-11-11T03:30:40;5.30;;;2.78;;
70467;SDS011;57934;51.532;7.684;2022-11-11T03:33:26;5.95;;;2.65;;
70467;SDS011;57934;51.532;7.684;2022-11-11T03:36:11;7.00;;;2.70;;
70467;SDS011;57934;51.532;7.684;2022-11-11T03:38:55;3.90;;;2.50;;
70467;SDS011;57934;51.532;7.684;2022-11-11T03:41:40;5.97;;;2.30;;
70467;SDS011;57934;51.532;7.684;2022-11-11T03:44:24;4.05;;;2.70;;
70467;SDS011;57934;51.532;7.684;2022-11-11T03:47:11;4.78;;;2.83;;
70467;SDS011;57934;51.532;7.684;2022-11-11T03:49:59;2.65;;;2.20;;
70467;SDS011;57934;51.532;7.684;2022-11-11T03:52:45;4.00;;;2.20;;
70467;SDS011;57934;51.532;7.684;2022-11-11T03:55:29;5.95;;;2.95;;
70467;SDS011;57934;51.532;7.684;2022-11-11T04:00:59;4.28;;;2.33;;
70467;SDS011;57934;51.532;7.684;2022-11-11T04:03:43;6.03;;;2.17;;
70467;SDS011;57934;51.532;7.684;2022-11-11T04:06:47;7.65;;;2.63;;
70467;SDS011;57934;51.532;7.684;2022-11-11T04:09:50;5.82;;;2.75;;
70467;SDS011;57934;51.532;7.684;2022-11-11T04:12:54;4.47;;;2.45;;
70467;SDS011;57934;51.532;7.684;2022-11-11T04:15:58;3.28;;;2.15;;
70467;SDS011;57934;51.532;7.684;2022-11-11T04:18:52;5.72;;;2.53;;
70467;SDS011;57934;51.532;7.684;2022-11-11T04:21:56;6.82;;;3.05;;
70467;SDS011;57934;51.532;7.684;2022-11-11T04:24:40;6.43;;;2.58;;
70467;SDS011;57934;51.532;7.684;2022-11-11T04:27:43;6.68;;;2.42;;
70467;SDS011;57934;51.532;7.684;2022-11-11T04:30:28;7.68;;;2.40;;
70467;SDS011;57934;51.532;7.684;2022-11-11T04:33:13;5.10;;;1.80;;
70467;SDS011;57934;51.532;7.684;2022-11-11T04:35:58;6.45;;;2.40;;
70467;SDS011;57934;51.532;7.684;2022-11-11T04:38:43;6.60;;;2.60;;
70467;SDS011;57934;51.532;7.684;2022-11-11T04:41:46;6.05;;;2.47;;
70467;SDS011;57934;51.532;7.684;2022-11-11T04:44:31;4.63;;;2.42;;
70467;SDS011;57934;51.532;7.684;2022-11-11T04:47:34;7.32;;;2.75;;
70467;SDS011;57934;51.532;7.684;2022-11-11T04:50:19;5.95;;;2.78;;
70467;SDS011;57934;51.532;7.684;2022-11-11T04:53:05;5.53;;;2.53;;
70467;SDS011;57934;51.532;7.684;2022-11-11T04:55:51;3.80;;;2.33;;
70467;SDS011;57934;51.532;7.684;2022-11-11T04:58:55;4.80;;;2.60;;
70467;SDS011;57934;51.532;7.684;2022-11-11T05:01:59;5.93;;;2.55;;
70467;SDS011;57934;51.532;7.684;2022-11-11T05:05:03;10.57;;;2.53;;
70467;SDS011;57934;51.532;7.684;2022-11-11T05:07:48;3.83;;;2.40;;
70467;SDS011;57934;51.532;7.684;2022-11-11T05:10:52;5.88;;;2.60;;
70467;SDS011;57934;51.532;7.684;2022-11-11T05:13:36;6.82;;;2.78;;
70467;SDS011;57934;51.532;7.684;2022-11-11T05:16:41;8.13;;;2.58;;
70467;SDS011;57934;51.532;7.684;2022-11-11T05:19:46;4.22;;;2.40;;
70467;SDS011;57934;51.532;7.684;2022-11-11T05:22:50;5.25;;;2.13;;
70467;SDS011;57934;51.532;7.684;2022-11-11T05:25:34;4.70;;;2.20;;
70467;SDS011;57934;51.532;7.684;2022-11-11T05:28:19;3.97;;;2.17;;
70467;SDS011;57934;51.532;7.684;2022-11-11T05:31:03;3.00;;;2.08;;
70467;SDS011;57934;51.532;7.684;2022-11-11T05:33:48;4.85;;;2.33;;
70467;SDS011;57934;51.532;7.684;2022-11-11T05:36:33;5.10;;;2.00;;
70467;SDS011;57934;51.532;7.684;2022-11-11T05:39:17;4.70;;;2.10;;
70467;SDS011;57934;51.532;7.684;2022-11-11T05:42:02;4.75;;;1.98;;
70467;SDS011;57934;51.532;7.684;2022-11-11T05:44:47;4.25;;;2.50;;
70467;SDS011;57934;51.532;7.684;2022-11-11T05:47:32;7.32;;;2.13;;
70467;SDS011;57934;51.532;7.684;2022-11-11T05:50:16;4.13;;;2.38;;
70467;SDS011;57934;51.532;7.684;2022-11-11T05:53:02;2.78;;;2.03;;
70467;SDS011;57934;51.532;7.684;2022-11-11T05:55:46;6.32;;;2.50;;
70467;SDS011;57934;51.532;7.684;2022-11-11T05:58:33;2.85;;;2.00;;
70467;SDS011;57934;51.532;7.684;2022-11-11T06:01:18;8.48;;;2.33;;
70467;SDS011;57934;51.532;7.684;2022-11-11T06:04:03;5.65;;;2.15;;
70467;SDS011;57934;51.532;7.684;2022-11-11T06:06:48;5.07;;;2.42;;
70467;SDS011;57934;51.532;7.684;2022-11-11T06:09:33;6.40;;;2.50;;
70467;SDS011;57934;51.532;7.684;2022-11-11T06:12:18;4.85;;;2.13;;
70467;SDS011;57934;51.532;7.684;2022-11-11T06:15:02;3.78;;;2.45;;
70467;SDS011;57934;51.532;7.684;2022-11-11T06:17:47;4.93;;;2.00;;
70467;SDS011;57934;51.532;7.684;2022-11-11T06:20:32;6.07;;;2.13;;
70467;SDS011;57934;51.532;7.684;2022-11-11T06:23:20;5.75;;;2.90;;
70467;SDS011;57934;51.532;7.684;2022-11-11T06:29:04;5.65;;;2.20;;
70467;SDS011;57934;51.532;7.684;2022-11-11T06:31:49;4.25;;;2.28;;
70467;SDS011;57934;51.532;7.684;2022-11-11T06:34:34;2.85;;;2.45;;
70467;SDS011;57934;51.532;7.684;2022-11-11T06:37:19;4.72;;;1.90;;
70467;SDS011;57934;51.532;7.684;2022-11-11T06:40:04;3.97;;;2.22;;
70467;SDS011;57934;51.532;7.684;2022-11-11T06:45:33;4.38;;;1.70;;
70467;SDS011;57934;51.532;7.684;2022-11-11T06:48:20;4.45;;;2.25;;
70467;SDS011;57934;51.532;7.684;2022-11-11T06:51:05;4.90;;;2.22;;
70467;SDS011;57934;51.532;7.684;2022-11-11T06:53:50;4.18;;;2.13;;
70467;SDS011;57934;51.532;7.684;2022-11-11T06:56:35;4.45;;;2.15;;
70467;SDS011;57934;51.532;7.684;2022-11-11T06:59:19;3.35;;;1.95;;
70467;SDS011;57934;51.532;7.684;2022-11-11T07:02:04;4.18;;;1.90;;
70467;SDS011;57934;51.532;7.684;2022-11-11T07:04:48;3.17;;;1.85;;
70467;SDS011;57934;51.532;7.684;2022-11-11T07:07:32;4.40;;;2.05;;
70467;SDS011;57934;51.532;7.684;2022-11-11T07:10:17;4.30;;;1.77;;
70467;SDS011;57934;51.532;7.684;2022-11-11T07:13:02;3.38;;;1.83;;
70467;SDS011;57934;51.532;7.684;2022-11-11T07:15:48;4.40;;;1.70;;
70467;SDS011;57934;51.532;7.684;2022-11-11T07:18:32;3.03;;;1.95;;
70467;SDS011;57934;51.532;7.684;2022-11-11T07:21:18;5.65;;;2.92;;
70467;SDS011;57934;51.532;7.684;2022-11-11T07:24:02;3.13;;;1.60;;
70467;SDS011;57934;51.532;7.684;2022-11-11T07:26:47;4.95;;;2.25;;
70467;SDS011;57934;51.532;7.684;2022-11-11T07:29:32;5.70;;;2.05;;
70467;SDS011;57934;51.532;7.684;2022-11-11T07:32:17;3.70;;;1.70;;
70467;SDS011;57934;51.532;7.684;2022-11-11T07:35:02;4.22;;;1.95;;
70467;SDS011;57934;51.532;7.684;2022-11-11T07:37:48;2.85;;;1.70;;
70467;SDS011;57934;51.532;7.684;2022-11-11T07:40:33;3.40;;;2.10;;
70467;SDS011;57934;51.532;7.684;2022-11-11T07:46:02;3.33;;;1.67;;
70467;SDS011;57934;51.532;7.684;2022-11-11T07:48:47;2.90;;;1.42;;
70467;SDS011;57934;51.532;7.684;2022-11-11T07:51:32;4.32;;;1.75;;
70467;SDS011;57934;51.532;7.684;2022-11-11T07:54:17;2.80;;;1.38;;
70467;SDS011;57934;51.532;7.684;2022-11-11T07:57:02;3.95;;;1.73;;
70467;SDS011;57934;51.532;7.684;2022-11-11T07:59:46;3.65;;;2.03;;
70467;SDS011;57934;51.532;7.684;2022-11-11T08:02:31;3.72;;;1.90;;
70467;SDS011;57934;51.532;7.684;2022-11-11T08:05:16;4.32;;;1.95;;
70467;SDS011;57934;51.532;7.684;2022-11-11T08:08:12;3.17;;;1.40;;
70467;SDS011;57934;51.532;7.684;2022-11-11T08:11:13;3.05;;;1.65;;
70467;SDS011;57934;51.532;7.684;2022-11-11T08:13:59;12.95;;;2.15;;
70467;SDS011;57934;51.532;7.684;2022-11-11T08:16:43;7.47;;;2.53;;
70467;SDS011;57934;51.532;7.684;2022-11-11T08:19:28;3.28;;;1.40;;
70467;SDS011;57934;51.532;7.684;2022-11-11T08:22:12;3.83;;;1.70;;
70467;SDS011;57934;51.532;7.684;2022-11-11T08:24:57;2.25;;;1.67;;
70467;SDS011;57934;51.532;7.684;2022-11-11T08:27:42;3.10;;;1.92;;
70467;SDS011;57934;51.532;7.684;2022-11-11T08:30:29;4.10;;;1.95;;
70467;SDS011;57934;51.532;7.684;2022-11-11T08:33:28;4.63;;;1.52;;
70467;SDS011;57934;51.532;7.684;2022-11-11T08:36:13;2.78;;;1.50;;
70467;SDS011;57934;51.532;7.684;2022-11-11T08:38:58;1.20;;;1.10;;
70467;SDS011;57934;51.532;7.684;2022-11-11T08:41:43;5.20;;;1.60;;
70467;SDS011;57934;51.532;7.684;2022-11-11T08:44:27;3.38;;;1.42;;
70467;SDS011;57934;51.532;7.684;2022-11-11T08:47:12;2.55;;;1.63;;
70467;SDS011;57934;51.532;7.684;2022-11-11T08:49:57;2.72;;;1.13;;
70467;SDS011;57934;51.532;7.684;2022-11-11T08:52:45;2.97;;;1.58;;
70467;SDS011;57934;51.532;7.684;2022-11-11T08:55:34;2.60;;;1.30;;
70467;SDS011;57934;51.532;7.684;2022-11-11T08:58:19;1.92;;;1.60;;
70467;SDS011;57934;51.532;7.684;2022-11-11T09:03:54;3.95;;;1.33;;
70467;SDS011;57934;51.532;7.684;2022-11-11T09:06:38;2.95;;;1.25;;
70467;SDS011;57934;51.532;7.684;2022-11-11T09:09:26;2.05;;;1.20;;
70467;SDS011;57934;51.532;7.684;2022-11-11T09:12:10;2.40;;;1.35;;
70467;SDS011;57934;51.532;7.684;2022-11-11T09:14:55;1.70;;;1.05;;
70467;SDS011;57934;51.532;7.684;2022-11-11T09:17:45;2.95;;;1.20;;
70467;SDS011;57934;51.532;7.684;2022-11-11T09:20:30;6.15;;;1.90;;
70467;SDS011;57934;51.532;7.684;2022-11-11T09:23:15;2.03;;;1.10;;
70467;SDS011;57934;51.532;7.684;2022-11-11T09:25:59;3.65;;;1.38;;
70467;SDS011;57934;51.532;7.684;2022-11-11T09:28:47;1.88;;;1.30;;
70467;SDS011;57934;51.532;7.684;2022-11-11T09:31:32;8.23;;;1.50;;
70467;SDS011;57934;51.532;7.684;2022-11-11T09:34:17;4.78;;;1.35;;
70467;SDS011;57934;51.532;7.684;2022-11-11T09:37:03;6.05;;;1.60;;
70467;SDS011;57934;51.532;7.684;2022-11-11T09:39:47;3.13;;;1.20;;
70467;SDS011;57934;51.532;7.684;2022-11-11T09:42:39;2.88;;;1.10;;
70467;SDS011;57934;51.532;7.684;2022-11-11T09:51:51;2.22;;;1.30;;
70467;SDS011;57934;51.532;7.684;2022-11-11T09:54:49;2.53;;;0.90;;
70467;SDS011;57934;51.532;7.684;2022-11-11T09:57:41;2.00;;;1.05;;
70467;SDS011;57934;51.532;7.684;2022-11-11T10:00:35;3.40;;;0.98;;
70467;SDS011;57934;51.532;7.684;2022-11-11T10:03:21;3.65;;;0.90;;
70467;SDS011;57934;51.532;7.684;2022-11-11T10:06:13;3.20;;;1.48;;
70467;SDS011;57934;51.532;7.684;2022-11-11T10:09:50;1.30;;;1.20;;
70467;SDS011;57934;51.532;7.684;2022-11-11T10:12:25;2.25;;;1.10;;
70467;SDS011;57934;51.532;7.684;2022-11-11T10:15:22;2.28;;;0.90;;
70467;SDS011;57934;51.532;7.684;2022-11-11T10:23:40;1.90;;;0.95;;
70467;SDS011;57934;51.532;7.684;2022-11-11T10:26:39;4.40;;;1.60;;
70467;SDS011;57934;51.532;7.684;2022-11-11T10:29:27;2.13;;;1.15;;
70467;SDS011;57934;51.532;7.684;2022-11-11T10:32:27;3.42;;;1.45;;
70467;SDS011;57934;51.532;7.684;2022-11-11T10:35:20;4.70;;;1.42;;
70467;SDS011;57934;51.532;7.684;2022-11-11T10:40:56;1.90;;;1.00;;
70467;SDS011;57934;51.532;7.684;2022-11-11T10:43:47;2.03;;;0.98;;
70467;SDS011;57934;51.532;7.684;2022-11-11T10:46:37;2.28;;;1.30;;
70467;SDS011;57934;51.532;7.684;2022-11-11T10:49:26;3.45;;;0.88;;
70467;SDS011;57934;51.532;7.684;2022-11-11T10:52:20;2.92;;;1.17;;
70467;SDS011;57934;51.532;7.684;2022-11-11T10:55:08;3.55;;;1.00;;
70467;SDS011;57934;51.532;7.684;2022-11-11T11:00:53;1.45;;;1.10;;
70467;SDS011;57934;51.532;7.684;2022-11-11T11:03:41;2.60;;;0.98;;
70467;SDS011;57934;51.532;7.684;2022-11-11T11:06:34;2.78;;;0.90;;
70467;SDS011;57934;51.532;7.684;2022-11-11T11:12:24;2.42;;;1.10;;
70467;SDS011;57934;51.532;7.684;2022-11-11T11:15:17;1.42;;;0.95;;
70467;SDS011;57934;51.532;7.684;2022-11-11T11:18:07;2.60;;;0.95;;
70467;SDS011;57934;51.532;7.684;2022-11-11T11:20:56;2.75;;;0.80;;
70467;SDS011;57934;51.532;7.684;2022-11-11T11:23:45;2.70;;;0.70;;
70467;SDS011;57934;51.532;7.684;2022-11-11T11:29:39;1.92;;;1.10;;
70467;SDS011;57934;51.532;7.684;2022-11-11T11:35:37;1.42;;;0.93;;
70467;SDS011;57934;51.532;7.684;2022-11-11T11:38:40;1.75;;;1.05;;
70467;SDS011;57934;51.532;7.684;2022-11-11T11:41:44;2.13;;;0.90;;
70467;SDS011;57934;51.532;7.684;2022-11-11T11:44:36;2.92;;;1.02;;
70467;SDS011;57934;51.532;7.684;2022-11-11T11:56:44;1.88;;;1.00;;
70467;SDS011;57934;51.532;7.684;2022-11-11T11:59:45;1.58;;;0.95;;
70467;SDS011;57934;51.532;7.684;2022-11-11T12:03:00;1.23;;;0.75;;
70467;SDS011;57934;51.532;7.684;2022-11-11T12:05:49;2.80;;;0.90;;
70467;SDS011;57934;51.532;7.684;2022-11-11T12:21:14;3.83;;;1.08;;
70467;SDS011;57934;51.532;7.684;2022-11-11T12:24:14;3.17;;;1.00;;
70467;SDS011;57934;51.532;7.684;2022-11-11T12:30:11;2.15;;;1.00;;
70467;SDS011;57934;51.532;7.684;2022-11-11T12:36:15;3.55;;;1.02;;
70467;SDS011;57934;51.532;7.684;2022-11-11T12:48:50;1.95;;;1.05;;
70467;SDS011;57934;51.532;7.684;2022-11-11T12:51:32;4.07;;;1.00;;
70467;SDS011;57934;51.532;7.684;2022-11-11T13:00:16;2.88;;;0.85;;
70467;SDS011;57934;51.532;7.684;2022-11-11T13:03:20;2.38;;;0.80;;
70467;SDS011;57934;51.532;7.684;2022-11-11T13:06:35;2.80;;;0.95;;
70467;SDS011;57934;51.532;7.684;2022-11-11T13:09:44;3.72;;;0.93;;
70467;SDS011;57934;51.532;7.684;2022-11-11T13:15:41;1.75;;;0.80;;
70467;SDS011;57934;51.532;7.684;2022-11-11T13:18:27;1.60;;;0.70;;
70467;SDS011;57934;51.532;7.684;2022-11-11T13:21:23;3.67;;;0.85;;
70467;SDS011;57934;51.532;7.684;2022-11-11T13:24:15;1.08;;;0.88;;
70467;SDS011;57934;51.532;7.684;2022-11-11T13:33:34;4.00;;;1.23;;
70467;SDS011;57934;51.532;7.684;2022-11-11T13:36:24;2.30;;;0.70;;
70467;SDS011;57934;51.532;7.684;2022-11-11T13:39:46;3.60;;;1.00;;
70467;SDS011;57934;51.532;7.684;2022-11-11T13:42:37;5.47;;;1.10;;
70467;SDS011;57934;51.532;7.684;2022-11-11T13:45:34;2.40;;;0.88;;
70467;SDS011;57934;51.532;7.684;2022-11-11T13:54:28;2.85;;;1.00;;
70467;SDS011;57934;51.532;7.684;2022-11-11T13:57:19;2.55;;;0.80;;
70467;SDS011;57934;51.532;7.684;2022-11-11T14:08:57;1.55;;;0.70;;
70467;SDS011;57934;51.532;7.684;2022-11-11T14:11:42;1.38;;;0.80;;
70467;SDS011;57934;51.532;7.684;2022-11-11T14:17:17;2.78;;;0.80;;
70467;SDS011;57934;51.532;7.684;2022-11-11T14:20:32;2.57;;;0.90;;
70467;SDS011;57934;51.532;7.684;2022-11-11T14:26:25;1.65;;;0.80;;
70467;SDS011;57934;51.532;7.684;2022-11-11T14:29:17;2.50;;;1.02;;
70467;SDS011;57934;51.532;7.684;2022-11-11T14:32:06;1.15;;;0.70;;
70467;SDS011;57934;51.532;7.684;2022-11-11T14:35:05;1.80;;;0.80;;
70467;SDS011;57934;51.532;7.684;2022-11-11T14:40:46;2.35;;;1.17;;
70467;SDS011;57934;51.532;7.684;2022-11-11T14:46:15;1.83;;;0.83;;
70467;SDS011;57934;51.532;7.684;2022-11-11T14:49:00;3.33;;;1.05;;
70467;SDS011;57934;51.532;7.684;2022-11-11T14:51:49;1.45;;;0.90;;
70467;SDS011;57934;51.532;7.684;2022-11-11T14:54:53;4.10;;;1.20;;
70467;SDS011;57934;51.532;7.684;2022-11-11T15:01:11;2.63;;;1.10;;
70467;SDS011;57934;51.532;7.684;2022-11-11T15:03:59;1.60;;;1.10;;
70467;SDS011;57934;51.532;7.684;2022-11-11T15:06:57;2.45;;;1.10;;
70467;SDS011;57934;51.532;7.684;2022-11-11T15:16:06;2.78;;;1.10;;
70467;SDS011;57934;51.532;7.684;2022-11-11T15:28:26;3.40;;;0.90;;
70467;SDS011;57934;51.532;7.684;2022-11-11T15:31:38;3.13;;;0.93;;
70467;SDS011;57934;51.532;7.684;2022-11-11T15:37:50;2.13;;;0.90;;
70467;SDS011;57934;51.532;7.684;2022-11-11T15:40:44;1.85;;;0.90;;
70467;SDS011;57934;51.532;7.684;2022-11-11T15:43:31;2.33;;;0.90;;
70467;SDS011;57934;51.532;7.684;2022-11-11T15:46:24;5.50;;;1.25;;
70467;SDS011;57934;51.532;7.684;2022-11-11T15:52:31;5.47;;;1.55;;
70467;SDS011;57934;51.532;7.684;2022-11-11T15:55:21;1.95;;;1.60;;
70467;SDS011;57934;51.532;7.684;2022-11-11T15:58:15;3.55;;;2.30;;
70467;SDS011;57934;51.532;7.684;2022-11-11T16:01:09;5.05;;;1.73;;
70467;SDS011;57934;51.532;7.684;2022-11-11T16:03:56;2.60;;;1.90;;
70467;SDS011;57934;51.532;7.684;2022-11-11T16:06:41;1.55;;;1.45;;
70467;SDS011;57934;51.532;7.684;2022-11-11T16:09:26;2.05;;;1.63;;
70467;SDS011;57934;51.532;7.684;2022-11-11T16:12:15;6.25;;;2.00;;
70467;SDS011;57934;51.532;7.684;2022-11-11T16:15:03;2.35;;;2.00;;
70467;SDS011;57934;51.532;7.684;2022-11-11T16:17:52;2.83;;;2.03;;
70467;SDS011;57934;51.532;7.684;2022-11-11T16:20:45;2.75;;;1.88;;
70467;SDS011;57934;51.532;7.684;2022-11-11T16:23:35;4.93;;;1.88;;
70467;SDS011;57934;51.532;7.684;2022-11-11T16:26:21;4.97;;;1.90;;
70467;SDS011;57934;51.532;7.684;2022-11-11T16:29:08;4.55;;;2.15;;
70467;SDS011;57934;51.532;7.684;2022-11-11T16:31:58;2.72;;;2.00;;
70467;SDS011;57934;51.532;7.684;2022-11-11T16:34:42;2.28;;;1.85;;
70467;SDS011;57934;51.532;7.684;2022-11-11T16:37:28;3.03;;;2.28;;
70467;SDS011;57934;51.532;7.684;2022-11-11T16:46:05;4.20;;;2.30;;
70467;SDS011;57934;51.532;7.684;2022-11-11T16:48:51;3.72;;;2.30;;
70467;SDS011;57934;51.532;7.684;2022-11-11T16:51:38;4.57;;;2.67;;
70467;SDS011;57934;51.532;7.684;2022-11-11T16:54:27;3.70;;;2.53;;
70467;SDS011;57934;51.532;7.684;2022-11-11T16:57:18;5.82;;;2.30;;
70467;SDS011;57934;51.532;7.684;2022-11-11T17:00:06;3.97;;;2.90;;
70467;SDS011;57934;51.532;7.684;2022-11-11T17:06:02;2.83;;;2.45;;
70467;SDS011;57934;51.532;7.684;2022-11-11T17:08:48;3.90;;;2.15;;
70467;SDS011;57934;51.532;7.684;2022-11-11T17:11:41;3.15;;;2.25;;
70467;SDS011;57934;51.532;7.684;2022-11-11T17:14:27;5.15;;;2.78;;
70467;SDS011;57934;51.532;7.684;2022-11-11T17:17:14;9.73;;;4.15;;
70467;SDS011;57934;51.532;7.684;2022-11-11T17:20:05;6.50;;;3.70;;
70467;SDS011;57934;51.532;7.684;2022-11-11T17:22:53;5.47;;;3.15;;
70467;SDS011;57934;51.532;7.684;2022-11-11T17:25:39;7.55;;;3.17;;
70467;SDS011;57934;51.532;7.684;2022-11-11T17:28:24;4.45;;;2.92;;
70467;SDS011;57934;51.532;7.684;2022-11-11T17:31:11;3.92;;;2.58;;
70467;SDS011;57934;51.532;7.684;2022-11-11T17:33:56;5.50;;;2.85;;
70467;SDS011;57934;51.532;7.684;2022-11-11T17:36:40;6.60;;;2.88;;
70467;SDS011;57934;51.532;7.684;2022-11-11T17:39:25;8.02;;;3.22;;
70467;SDS011;57934;51.532;7.684;2022-11-11T17:42:10;6.95;;;3.10;;
70467;SDS011;57934;51.532;7.684;2022-11-11T17:44:55;6.88;;;3.80;;
70467;SDS011;57934;51.532;7.684;2022-11-11T17:47:40;8.23;;;3.58;;
70467;SDS011;57934;51.532;7.684;2022-11-11T17:50:24;6.07;;;3.50;;
70467;SDS011;57934;51.532;7.684;2022-11-11T17:53:09;6.38;;;3.45;;
70467;SDS011;57934;51.532;7.684;2022-11-11T17:55:58;6.07;;;3.60;;
70467;SDS011;57934;51.532;7.684;2022-11-11T17:58:44;4.82;;;3.60;;
70467;SDS011;57934;51.532;7.684;2022-11-11T18:01:29;4.00;;;3.22;;
70467;SDS011;57934;51.532;7.684;2022-11-11T18:04:13;6.10;;;3.20;;
70467;SDS011;57934;51.532;7.684;2022-11-11T18:06:58;4.75;;;3.08;;
70467;SDS011;57934;51.532;7.684;2022-11-11T18:09:42;3.97;;;2.70;;
70467;SDS011;57934;51.532;7.684;2022-11-11T18:12:30;4.80;;;2.35;;
70467;SDS011;57934;51.532;7.684;2022-11-11T18:15:14;2.67;;;2.15;;
70467;SDS011;57934;51.532;7.684;2022-11-11T18:17:59;3.20;;;2.05;;
70467;SDS011;57934;51.532;7.684;2022-11-11T18:20:43;3.50;;;2.53;;
70467;SDS011;57934;51.532;7.684;2022-11-11T18:23:31;3.97;;;3.20;;
70467;SDS011;57934;51.532;7.684;2022-11-11T18:26:17;6.68;;;2.92;;
70467;SDS011;57934;51.532;7.684;2022-11-11T18:29:08;6.43;;;3.22;;
70467;SDS011;57934;51.532;7.684;2022-11-11T18:31:54;4.82;;;3.05;;
70467;SDS011;57934;51.532;7.684;2022-11-11T18:34:38;7.55;;;3.85;;
70467;SDS011;57934;51.532;7.684;2022-11-11T18:37:23;7.30;;;3.40;;
70467;SDS011;57934;51.532;7.684;2022-11-11T18:40:08;7.45;;;4.05;;
70467;SDS011;57934;51.532;7.684;2022-11-11T18:42:54;8.35;;;3.60;;
70467;SDS011;57934;51.532;7.684;2022-11-11T18:45:39;4.97;;;3.70;;
70467;SDS011;57934;51.532;7.684;2022-11-11T18:48:23;5.38;;;3.35;;
70467;SDS011;57934;51.532;7.684;2022-11-11T18:51:09;4.55;;;3.08;;
70467;SDS011;57934;51.532;7.684;2022-11-11T18:53:55;3.35;;;2.22;;
70467;SDS011;57934;51.532;7.684;2022-11-11T18:56:40;5.22;;;2.35;;
70467;SDS011;57934;51.532;7.684;2022-11-11T18:59:25;5.10;;;2.50;;
70467;SDS011;57934;51.532;7.684;2022-11-11T19:02:10;4.15;;;2.40;;
70467;SDS011;57934;51.532;7.684;2022-11-11T19:07:39;4.47;;;2.70;;
70467;SDS011;57934;51.532;7.684;2022-11-11T19:10:24;3.70;;;2.35;;
70467;SDS011;57934;51.532;7.684;2022-11-11T19:13:08;5.95;;;2.40;;
70467;SDS011;57934;51.532;7.684;2022-11-11T19:15:53;3.08;;;2.30;;
70467;SDS011;57934;51.532;7.684;2022-11-11T19:18:38;8.95;;;3.78;;
70467;SDS011;57934;51.532;7.684;2022-11-11T19:21:24;5.22;;;3.03;;
70467;SDS011;57934;51.532;7.684;2022-11-11T19:24:10;3.05;;;2.20;;
70467;SDS011;57934;51.532;7.684;2022-11-11T19:26:55;5.65;;;2.47;;
70467;SDS011;57934;51.532;7.684;2022-11-11T19:29:40;4.63;;;2.10;;
70467;SDS011;57934;51.532;7.684;2022-11-11T19:32:24;2.88;;;2.10;;
70467;SDS011;57934;51.532;7.684;2022-11-11T19:35:09;4.88;;;2.05;;
70467;SDS011;57934;51.532;7.684;2022-11-11T19:37:53;2.42;;;1.90;;
70467;SDS011;57934;51.532;7.684;2022-11-11T19:40:38;5.97;;;2.10;;
70467;SDS011;57934;51.532;7.684;2022-11-11T19:43:22;4.18;;;1.80;;
70467;SDS011;57934;51.532;7.684;2022-11-11T19:46:09;4.00;;;2.10;;
70467;SDS011;57934;51.532;7.684;2022-11-11T19:48:56;6.32;;;2.28;;
70467;SDS011;57934;51.532;7.684;2022-11-11T19:51:41;6.65;;;2.30;;
70467;SDS011;57934;51.532;7.684;2022-11-11T19:57:11;3.42;;;2.10;;